Sayre, Alabama
Current Conditions -  °F | °C
As of 6:53 AM on Saturday 20 Dec 2014 (Local Time) from KBHM Reporting Station
Haze Haze  
Wind Chill: 37°   Ceiling: 2900
Heat Index: 40°   Visibility: 6mi
Dew Point: 38°   Wind: 5mph
Humidity: 93%   Direction: 20°NNE
Pressure: 30.22"   Gusts: NA
Location:  33.71°N, 86.97°W
Report Text: KBHM 201253Z 02004KT 6SM BR OVC029 04/03 A3022 RMK AO2 SLP235 T00440033
Loading
Personal Weather Stations






























Interactive Weather Map New forecast layout! Learn more

10-Day Weather Forecast

Advertisements
Track Severe Weather on mobile